Terminal Aerodrome Forecast
Issued by NWS

Home | Current Version | Previous Version | Text Only | Print | Product List | Glossary On
Versions: 1 2 3 4 5 6 7 8 9 10 11 12 13 14 15
000
FTUS41 KLWX 021120
TAFMTN
TAF
KMTN 021120Z 0212/0312 VRB03KT P6SM FEW070 SCT250
     FM030900 33005KT 5SM BR FEW080 SCT250
     FM031100 34005KT 5SM BR BKN080 BKN250=

USA.gov is the U.S. government's official web portal to all federal, state and local government web resources and services.